Terminal Aerodrome Forecast
Issued by NWS

Home | Current Version | Previous Version | Graphics & Text | Print | Product List | Glossary On
Versions: 1 2 3 4 5 6 7 8 9 10 11 12 13 14 15 16
000
FTUS43 KMPX 071723
TAFRNH
TAF
KRNH 071723Z 0718/0818 27016G28KT P6SM BKN025 BKN035
     FM072200 30018G30KT 5SM -SN BLSN OVC020
      TEMPO 0722/0802 2SM -SHSN BLSN OVC012
     FM080200 31020G30KT 2SM -SN BLSN OVC012
     FM081400 33022G32KT 3SM BLSN OVC020=

USA.gov is the U.S. government's official web portal to all federal, state and local government web resources and services.